Time;durP1;ratioP1;P1;durP2;ratioP2;P2;SDS_P1;SDS_P2;PMS_P1;PMS_P2;Temp;Humidity;BMP_temperature;BMP_pressure;BME280_temperature;BME280_humidity;BME280_pressure;Samples;Min_cycle;Max_cycle;Signal;HPM_P1;HPM_P2
2022/11/30 00:01:48;;;;;;;56.63;34.37;;;;;;;;;;5032575;28;20471;-71
2022/11/30 00:04:37;;;;;;;53.50;32.80;;;;;;;;;;5035818;28;20474;-73
2022/11/30 00:07:35;;;;;;;54.23;34.27;;;;;;;;;;5049043;28;20471;-72
2022/11/30 00:10:28;;;;;;;50.43;32.03;;;;;;;;;;5050088;28;20446;-72
2022/11/30 00:13:17;;;;;;;54.27;33.47;;;;;;;;;;5055529;28;20475;-71
2022/11/30 00:16:08;;;;;;;52.13;32.70;;;;;;;;;;5054898;28;21418;-72
2022/11/30 00:18:59;;;;;;;56.77;33.63;;;;;;;;;;5035997;28;20475;-72
2022/11/30 00:21:58;;;;;;;56.30;33.17;;;;;;;;;;5035195;28;21038;-71
2022/11/30 00:24:48;;;;;;;54.83;34.30;;;;;;;;;;5031946;28;20451;-71
2022/11/30 00:27:44;;;;;;;57.50;34.37;;;;;;;;;;5031993;28;20458;-72
2022/11/30 00:30:37;;;;;;;54.53;33.13;;;;;;;;;;5029455;28;20451;-71
2022/11/30 00:33:27;;;;;;;59.20;33.93;;;;;;;;;;5030515;28;20852;-71
2022/11/30 00:36:19;;;;;;;53.40;34.00;;;;;;;;;;5033204;28;20488;-72
2022/11/30 00:39:08;;;;;;;52.77;32.20;;;;;;;;;;5023036;28;20485;-72
2022/11/30 00:42:03;;;;;;;53.80;32.23;;;;;;;;;;5025818;28;20484;-72
2022/11/30 00:44:56;;;;;;;53.70;33.33;;;;;;;;;;5029804;28;20478;-72
2022/11/30 00:47:49;;;;;;;54.57;32.93;;;;;;;;;;5026923;28;20459;-72
2022/11/30 00:50:40;;;;;;;52.07;32.70;;;;;;;;;;5033934;28;20471;-72
2022/11/30 00:53:33;;;;;;;52.70;34.50;;;;;;;;;;5031090;28;20482;-72
2022/11/30 00:56:26;;;;;;;56.93;32.87;;;;;;;;;;5039569;28;20470;-72
2022/11/30 00:59:17;;;;;;;49.13;31.30;;;;;;;;;;5033942;28;20476;-72
2022/11/30 01:02:08;;;;;;;54.33;33.00;;;;;;;;;;5032619;28;20992;-72
2022/11/30 01:04:57;;;;;;;60.60;34.90;;;;;;;;;;5036037;28;20454;-72
2022/11/30 01:07:47;;;;;;;54.77;32.53;;;;;;;;;;5026999;28;20546;-72
2022/11/30 01:10:37;;;;;;;59.47;34.70;;;;;;;;;;5020639;28;20842;-72
2022/11/30 01:13:27;;;;;;;54.17;32.90;;;;;;;;;;5030137;28;20485;-72
2022/11/30 01:16:20;;;;;;;52.57;32.27;;;;;;;;;;5025465;28;20460;-72
2022/11/30 01:19:20;;;;;;;55.40;33.20;;;;;;;;;;5035499;28;20473;-72
2022/11/30 01:22:09;;;;;;;52.07;32.47;;;;;;;;;;5036088;28;22074;-71
2022/11/30 01:25:06;;;;;;;56.30;32.40;;;;;;;;;;5029108;28;20466;-72
2022/11/30 01:27:58;;;;;;;51.67;31.67;;;;;;;;;;5035460;28;20470;-72
2022/11/30 01:30:59;;;;;;;53.67;32.80;;;;;;;;;;5036534;28;20479;-72
2022/11/30 01:33:52;;;;;;;53.47;32.20;;;;;;;;;;5025325;28;20481;-72
2022/11/30 01:36:44;;;;;;;55.60;32.90;;;;;;;;;;5027266;28;20542;-72
2022/11/30 01:39:39;;;;;;;58.30;34.13;;;;;;;;;;5032349;28;20508;-72
2022/11/30 01:42:29;;;;;;;61.10;35.90;;;;;;;;;;5030277;28;20765;-72
2022/11/30 01:45:19;;;;;;;56.53;34.63;;;;;;;;;;5021305;28;20976;-72
2022/11/30 01:48:14;;;;;;;58.73;34.27;;;;;;;;;;5030171;28;20470;-72
2022/11/30 01:51:04;;;;;;;61.43;34.70;;;;;;;;;;5022997;28;20613;-72
2022/11/30 01:53:56;;;;;;;58.87;34.57;;;;;;;;;;5032820;28;21013;-72
2022/11/30 01:56:48;;;;;;;57.80;34.77;;;;;;;;;;5034242;28;20449;-72
2022/11/30 01:59:38;;;;;;;57.00;33.17;;;;;;;;;;5026986;28;20545;-72
2022/11/30 02:02:33;;;;;;;55.93;34.50;;;;;;;;;;5028041;28;20477;-72
2022/11/30 02:05:22;;;;;;;61.80;35.07;;;;;;;;;;5031852;28;20549;-72
2022/11/30 02:08:13;;;;;;;62.10;36.03;;;;;;;;;;5030532;28;20853;-72
2022/11/30 02:11:05;;;;;;;58.40;36.03;;;;;;;;;;5047946;28;21522;-72
2022/11/30 02:14:02;;;;;;;57.50;33.40;;;;;;;;;;5033806;28;20471;-72
2022/11/30 02:16:59;;;;;;;59.20;35.17;;;;;;;;;;5031912;28;20468;-72
2022/11/30 02:20:07;;;;;;;50.30;33.27;;;;;;;;;;5034718;28;20492;-72
2022/11/30 02:23:11;;;;;;;56.33;34.27;;;;;;;;;;5035096;28;20490;-72
2022/11/30 02:26:15;;;;;;;54.00;33.30;;;;;;;;;;5036405;28;20470;-72
2022/11/30 02:29:11;;;;;;;54.43;34.17;;;;;;;;;;5033708;28;20443;-72
2022/11/30 02:32:05;;;;;;;58.97;35.00;;;;;;;;;;5033752;28;20470;-72
2022/11/30 02:34:56;;;;;;;54.77;32.07;;;;;;;;;;5035718;28;20566;-73
2022/11/30 02:37:50;;;;;;;60.50;34.20;;;;;;;;;;5035176;28;20508;-72
2022/11/30 02:40:43;;;;;;;58.10;34.83;;;;;;;;;;5031574;28;20838;-72
2022/11/30 02:43:41;;;;;;;60.60;34.57;;;;;;;;;;5036007;28;20482;-72
2022/11/30 02:46:42;;;;;;;58.27;33.70;;;;;;;;;;5026551;28;20471;-72
2022/11/30 02:49:33;;;;;;;57.23;35.30;;;;;;;;;;5032943;28;20473;-72
2022/11/30 02:52:28;;;;;;;60.50;33.20;;;;;;;;;;5033442;28;20846;-72
2022/11/30 02:55:20;;;;;;;52.97;33.13;;;;;;;;;;5025689;28;21116;-72
2022/11/30 02:58:13;;;;;;;52.13;33.37;;;;;;;;;;5030330;28;20904;-72
2022/11/30 03:01:02;;;;;;;57.23;34.97;;;;;;;;;;5024704;28;20476;-72
2022/11/30 03:04:01;;;;;;;58.50;36.90;;;;;;;;;;5029121;28;21002;-72
2022/11/30 03:06:50;;;;;;;60.47;35.07;;;;;;;;;;5037469;28;20482;-72
2022/11/30 03:09:38;;;;;;;59.43;34.53;;;;;;;;;;5035632;28;20458;-72
2022/11/30 03:12:31;;;;;;;53.17;32.70;;;;;;;;;;5031718;28;21186;-72
2022/11/30 03:15:21;;;;;;;56.80;34.13;;;;;;;;;;5033898;28;20475;-72
2022/11/30 03:18:12;;;;;;;58.87;36.00;;;;;;;;;;5038511;28;20466;-72
2022/11/30 03:21:05;;;;;;;60.07;35.33;;;;;;;;;;5037856;28;20487;-72
2022/11/30 03:23:53;;;;;;;66.83;35.70;;;;;;;;;;5042932;28;20877;-72
2022/11/30 03:26:47;;;;;;;62.37;34.43;;;;;;;;;;5040350;28;20455;-72
2022/11/30 03:29:35;;;;;;;59.10;34.83;;;;;;;;;;5034228;28;20452;-72
2022/11/30 03:32:28;;;;;;;60.57;36.73;;;;;;;;;;5044312;28;20633;-72
2022/11/30 03:35:22;;;;;;;65.40;36.30;;;;;;;;;;5042260;28;20460;-72
2022/11/30 03:38:14;;;;;;;66.47;37.50;;;;;;;;;;5044136;28;20471;-72
2022/11/30 03:41:07;;;;;;;57.57;34.30;;;;;;;;;;5044013;28;20483;-72
2022/11/30 03:43:56;;;;;;;60.57;34.47;;;;;;;;;;5041613;28;20463;-72
2022/11/30 03:46:51;;;;;;;60.07;33.80;;;;;;;;;;5040517;28;20447;-72
2022/11/30 03:49:40;;;;;;;63.73;37.73;;;;;;;;;;5041747;28;20457;-72
2022/11/30 03:52:32;;;;;;;59.67;33.90;;;;;;;;;;5038040;28;20480;-72
2022/11/30 03:55:30;;;;;;;67.60;34.17;;;;;;;;;;5037261;28;20448;-73
2022/11/30 03:58:19;;;;;;;62.87;34.80;;;;;;;;;;5033291;28;20888;-73
2022/11/30 04:01:09;;;;;;;66.00;36.63;;;;;;;;;;5034012;28;20482;-72
2022/11/30 04:04:02;;;;;;;63.97;35.70;;;;;;;;;;5032455;28;20832;-72
2022/11/30 04:06:57;;;;;;;60.90;34.60;;;;;;;;;;5027129;28;21186;-72
2022/11/30 04:09:46;;;;;;;62.63;35.60;;;;;;;;;;5029502;28;21911;-72
2022/11/30 04:12:41;;;;;;;67.07;36.87;;;;;;;;;;5042326;28;20562;-72
2022/11/30 04:15:30;;;;;;;60.17;33.70;;;;;;;;;;5050178;28;21095;-73
2022/11/30 04:18:21;;;;;;;66.93;37.83;;;;;;;;;;5062061;28;20460;-72
2022/11/30 04:21:14;;;;;;;61.77;34.27;;;;;;;;;;5055379;28;20857;-73
2022/11/30 04:24:04;;;;;;;68.30;36.07;;;;;;;;;;5045604;28;20493;-73
2022/11/30 04:26:53;;;;;;;71.20;37.60;;;;;;;;;;5039090;28;20508;-73
2022/11/30 04:29:44;;;;;;;65.80;34.87;;;;;;;;;;5038675;28;20566;-73
2022/11/30 04:32:33;;;;;;;62.60;37.20;;;;;;;;;;5020191;28;20481;-72
2022/11/30 04:35:24;;;;;;;63.23;34.03;;;;;;;;;;5034407;28;20805;-72
2022/11/30 04:38:12;;;;;;;61.87;36.37;;;;;;;;;;5037519;28;20473;-72
2022/11/30 04:41:07;;;;;;;65.90;34.27;;;;;;;;;;5042735;28;20479;-73
2022/11/30 04:43:59;;;;;;;65.53;34.07;;;;;;;;;;5039849;28;21088;-72
2022/11/30 04:46:52;;;;;;;65.30;36.63;;;;;;;;;;5038862;28;20456;-72
2022/11/30 04:49:41;;;;;;;69.70;36.23;;;;;;;;;;5037841;28;20447;-73
2022/11/30 04:52:30;;;;;;;65.67;34.57;;;;;;;;;;5031020;28;20467;-72
2022/11/30 04:55:21;;;;;;;63.30;33.93;;;;;;;;;;5030154;28;20451;-72
2022/11/30 04:58:11;;;;;;;67.63;36.60;;;;;;;;;;5040940;28;20456;-72
2022/11/30 05:01:03;;;;;;;76.53;37.80;;;;;;;;;;5036939;28;20479;-72
2022/11/30 05:03:56;;;;;;;67.00;34.60;;;;;;;;;;5040392;28;20480;-72
2022/11/30 05:06:48;;;;;;;66.60;35.30;;;;;;;;;;5044459;28;20469;-73
2022/11/30 05:09:36;;;;;;;68.47;35.20;;;;;;;;;;5038073;28;20454;-72
2022/11/30 05:12:25;;;;;;;64.83;35.40;;;;;;;;;;5041237;28;20475;-72
2022/11/30 05:15:15;;;;;;;66.33;34.20;;;;;;;;;;5031687;28;20459;-72
2022/11/30 05:18:07;;;;;;;63.20;34.70;;;;;;;;;;5043201;28;20455;-72
2022/11/30 05:20:58;;;;;;;63.00;33.10;;;;;;;;;;5043047;28;20486;-72
2022/11/30 05:23:47;;;;;;;74.93;35.87;;;;;;;;;;5032778;28;20480;-73
2022/11/30 05:26:39;;;;;;;66.57;35.27;;;;;;;;;;5035367;28;20530;-73
2022/11/30 05:29:30;;;;;;;70.60;35.87;;;;;;;;;;5030152;28;20454;-72
2022/11/30 05:32:23;;;;;;;74.23;36.10;;;;;;;;;;5035408;28;21009;-72
2022/11/30 05:35:12;;;;;;;67.73;35.00;;;;;;;;;;5030988;28;21467;-72
2022/11/30 05:38:06;;;;;;;59.50;34.03;;;;;;;;;;5022752;28;20451;-73
2022/11/30 05:41:04;;;;;;;69.40;35.27;;;;;;;;;;5027858;28;20476;-72
2022/11/30 05:43:59;;;;;;;72.00;35.33;;;;;;;;;;5027421;28;20577;-73
2022/11/30 05:46:54;;;;;;;68.17;33.70;;;;;;;;;;5032173;28;20459;-72
2022/11/30 05:49:44;;;;;;;63.37;33.77;;;;;;;;;;5026691;28;20454;-72
2022/11/30 05:52:32;;;;;;;68.67;35.47;;;;;;;;;;5008691;28;20479;-72
2022/11/30 05:55:22;;;;;;;64.47;33.90;;;;;;;;;;5033650;28;20459;-72
2022/11/30 05:58:13;;;;;;;58.97;32.60;;;;;;;;;;5029090;28;20853;-72
2022/11/30 06:01:05;;;;;;;67.00;35.27;;;;;;;;;;5033970;28;20955;-72
2022/11/30 06:03:56;;;;;;;64.67;35.40;;;;;;;;;;5031435;28;20471;-73
2022/11/30 06:06:45;;;;;;;71.03;35.53;;;;;;;;;;5030790;28;20451;-72
2022/11/30 06:09:40;;;;;;;66.13;33.70;;;;;;;;;;5026326;28;20455;-72
2022/11/30 06:12:33;;;;;;;63.67;35.20;;;;;;;;;;5023737;28;20470;-72
2022/11/30 06:15:28;;;;;;;70.97;34.80;;;;;;;;;;5030189;28;20814;-72
2022/11/30 06:18:24;;;;;;;66.60;33.10;;;;;;;;;;5025649;28;20897;-72
2022/11/30 06:21:13;;;;;;;66.27;34.23;;;;;;;;;;5032849;28;20483;-72
2022/11/30 06:24:11;;;;;;;66.20;33.37;;;;;;;;;;5034238;28;20489;-72
2022/11/30 06:27:00;;;;;;;69.70;34.60;;;;;;;;;;5030917;28;20459;-72
2022/11/30 06:29:51;;;;;;;71.50;33.20;;;;;;;;;;5022953;28;20491;-72
2022/11/30 06:32:40;;;;;;;71.47;34.67;;;;;;;;;;5027566;28;20486;-72
2022/11/30 06:35:31;;;;;;;69.77;34.57;;;;;;;;;;5039994;28;20448;-72
2022/11/30 06:38:19;;;;;;;64.63;34.57;;;;;;;;;;5035670;28;20469;-72
2022/11/30 06:41:09;;;;;;;62.50;34.23;;;;;;;;;;5036002;28;20851;-72
2022/11/30 06:43:57;;;;;;;60.63;31.50;;;;;;;;;;5023424;28;20474;-72
2022/11/30 06:46:48;;;;;;;63.27;34.73;;;;;;;;;;5028328;28;20965;-72
2022/11/30 06:49:38;;;;;;;58.27;32.10;;;;;;;;;;5035266;28;20471;-73
2022/11/30 06:52:27;;;;;;;67.63;33.83;;;;;;;;;;5037296;28;20476;-72
2022/11/30 06:55:15;;;;;;;62.30;32.63;;;;;;;;;;5039786;28;20462;-72
2022/11/30 06:58:07;;;;;;;75.33;34.30;;;;;;;;;;5040349;28;20473;-72
2022/11/30 07:00:56;;;;;;;72.07;37.70;;;;;;;;;;5036351;28;20899;-72
2022/11/30 07:03:46;;;;;;;64.37;32.90;;;;;;;;;;5038208;28;20486;-72
2022/11/30 07:06:34;;;;;;;72.70;34.83;;;;;;;;;;5040735;28;20830;-72
2022/11/30 07:09:23;;;;;;;65.13;33.70;;;;;;;;;;5039889;28;20826;-72
2022/11/30 07:12:12;;;;;;;58.80;32.50;;;;;;;;;;5026813;28;21042;-71
2022/11/30 07:15:00;;;;;;;59.50;33.47;;;;;;;;;;5041511;28;20452;-72
2022/11/30 07:17:49;;;;;;;64.60;34.37;;;;;;;;;;5040155;28;20547;-72
2022/11/30 07:20:39;;;;;;;59.33;31.90;;;;;;;;;;5032609;28;20513;-72
2022/11/30 07:26:44;;;;;;;57.40;32.50;;;;;;;;;;5045255;28;21148;-72
2022/11/30 07:29:32;;;;;;;60.20;33.77;;;;;;;;;;5032892;28;20461;-72
2022/11/30 07:32:22;;;;;;;56.30;31.50;;;;;;;;;;5039892;28;20524;-72
2022/11/30 07:35:11;;;;;;;60.03;32.30;;;;;;;;;;5038041;28;20517;-72
2022/11/30 07:38:01;;;;;;;62.87;31.13;;;;;;;;;;5039087;28;20880;-72
2022/11/30 07:40:58;;;;;;;60.83;32.00;;;;;;;;;;5036478;28;20491;-72
2022/11/30 07:43:46;;;;;;;58.57;31.57;;;;;;;;;;5019315;28;20467;-72
2022/11/30 07:46:35;;;;;;;57.27;32.63;;;;;;;;;;5035216;28;20464;-72
2022/11/30 07:49:24;;;;;;;54.93;31.27;;;;;;;;;;5037782;28;20443;-72
2022/11/30 07:52:13;;;;;;;62.07;31.67;;;;;;;;;;5036865;28;20478;-72
2022/11/30 07:55:03;;;;;;;56.70;31.27;;;;;;;;;;5033087;28;20451;-72
2022/11/30 07:57:51;;;;;;;56.93;32.10;;;;;;;;;;5034354;28;20456;-72
2022/11/30 08:00:40;;;;;;;59.60;32.07;;;;;;;;;;5032773;28;20455;-72
2022/11/30 08:03:29;;;;;;;59.40;31.03;;;;;;;;;;5037508;28;20487;-72
2022/11/30 08:06:25;;;;;;;57.60;31.30;;;;;;;;;;5038376;28;20513;-72
2022/11/30 08:09:14;;;;;;;58.97;32.53;;;;;;;;;;5037428;28;20467;-72
2022/11/30 08:12:09;;;;;;;57.40;30.23;;;;;;;;;;5034510;28;20476;-72
2022/11/30 08:14:58;;;;;;;54.97;32.10;;;;;;;;;;5038142;28;20477;-72
2022/11/30 08:18:06;;;;;;;53.77;30.77;;;;;;;;;;5038609;28;22398;-72
2022/11/30 08:20:58;;;;;;;50.77;30.20;;;;;;;;;;5036861;28;20487;-72
2022/11/30 08:23:47;;;;;;;54.60;31.27;;;;;;;;;;5034121;28;20485;-72
2022/11/30 08:26:36;;;;;;;57.40;33.60;;;;;;;;;;5027564;28;20464;-72
2022/11/30 08:29:26;;;;;;;50.57;30.40;;;;;;;;;;5039294;28;20447;-72
2022/11/30 08:32:16;;;;;;;51.83;28.90;;;;;;;;;;5033197;28;20475;-72
2022/11/30 08:35:05;;;;;;;52.10;30.43;;;;;;;;;;5031554;28;20853;-72
2022/11/30 08:37:55;;;;;;;48.63;31.30;;;;;;;;;;5036348;28;20454;-73
2022/11/30 08:40:44;;;;;;;49.60;29.80;;;;;;;;;;5037728;28;20467;-72
2022/11/30 08:43:33;;;;;;;53.17;29.37;;;;;;;;;;5032240;28;22410;-72
2022/11/30 08:46:23;;;;;;;45.83;27.67;;;;;;;;;;5025634;28;20451;-72
2022/11/30 08:49:32;;;;;;;44.87;27.10;;;;;;;;;;5036596;28;20530;-72
2022/11/30 08:52:20;;;;;;;51.67;29.43;;;;;;;;;;5033696;28;20467;-72
2022/11/30 08:55:10;;;;;;;48.80;30.20;;;;;;;;;;5036626;28;20865;-72
2022/11/30 08:57:58;;;;;;;47.40;28.70;;;;;;;;;;5037847;28;20453;-72
2022/11/30 09:00:47;;;;;;;48.27;30.13;;;;;;;;;;5032879;28;20479;-72
2022/11/30 09:03:37;;;;;;;44.67;28.37;;;;;;;;;;5052566;28;20501;-72
2022/11/30 09:06:29;;;;;;;46.40;28.97;;;;;;;;;;5064137;28;20457;-72
2022/11/30 09:09:17;;;;;;;46.73;27.60;;;;;;;;;;5059880;28;20459;-72
2022/11/30 09:12:06;;;;;;;42.93;27.53;;;;;;;;;;5034758;28;20482;-72
2022/11/30 09:14:55;;;;;;;37.50;24.17;;;;;;;;;;5035686;28;20447;-73
2022/11/30 09:17:46;;;;;;;46.77;27.83;;;;;;;;;;5028334;28;20464;-72
2022/11/30 09:20:39;;;;;;;44.97;27.33;;;;;;;;;;5034382;28;20467;-72
2022/11/30 09:23:27;;;;;;;47.77;28.00;;;;;;;;;;5035947;28;20476;-72
2022/11/30 09:26:17;;;;;;;42.60;27.07;;;;;;;;;;5041208;28;20455;-72
2022/11/30 09:29:05;;;;;;;39.17;26.97;;;;;;;;;;5033713;28;20456;-72
2022/11/30 09:31:54;;;;;;;38.03;25.57;;;;;;;;;;5035451;28;20870;-72
2022/11/30 09:34:43;;;;;;;40.00;25.07;;;;;;;;;;5034959;28;20455;-73
2022/11/30 09:37:33;;;;;;;39.73;25.93;;;;;;;;;;5037566;28;20443;-72
2022/11/30 09:40:22;;;;;;;35.67;24.93;;;;;;;;;;5025777;28;20448;-71
2022/11/30 09:43:18;;;;;;;38.33;24.73;;;;;;;;;;5033482;28;21339;-72
2022/11/30 09:46:08;;;;;;;40.87;24.80;;;;;;;;;;5035628;28;20855;-72
2022/11/30 09:49:00;;;;;;;39.27;25.23;;;;;;;;;;5035693;28;22284;-72
2022/11/30 09:51:50;;;;;;;39.37;26.10;;;;;;;;;;5040883;28;20472;-72
2022/11/30 09:54:42;;;;;;;38.30;24.87;;;;;;;;;;5040921;28;21251;-72
2022/11/30 09:57:33;;;;;;;38.23;25.23;;;;;;;;;;5037231;28;20451;-72
2022/11/30 10:00:22;;;;;;;35.80;24.20;;;;;;;;;;5033871;28;20455;-72
2022/11/30 10:03:11;;;;;;;34.07;24.37;;;;;;;;;;5032650;28;20486;-72
2022/11/30 10:06:04;;;;;;;35.83;24.70;;;;;;;;;;5032668;28;26120;-72
2022/11/30 10:09:02;;;;;;;36.13;25.80;;;;;;;;;;5036393;28;20452;-72
2022/11/30 10:11:57;;;;;;;35.73;24.50;;;;;;;;;;5033610;28;20900;-72
2022/11/30 10:15:04;;;;;;;36.57;24.70;;;;;;;;;;5038501;28;20466;-72
2022/11/30 10:17:54;;;;;;;35.83;24.33;;;;;;;;;;5027522;28;20455;-72
2022/11/30 10:20:51;;;;;;;32.60;23.10;;;;;;;;;;5032383;28;20565;-72
2022/11/30 10:23:53;;;;;;;34.77;25.03;;;;;;;;;;5032962;28;20487;-72
2022/11/30 10:26:46;;;;;;;34.43;24.10;;;;;;;;;;5038254;28;20451;-72
2022/11/30 10:29:37;;;;;;;35.30;23.60;;;;;;;;;;5036350;28;20972;-72
2022/11/30 10:32:33;;;;;;;34.00;23.20;;;;;;;;;;5029755;28;20475;-72
2022/11/30 10:35:24;;;;;;;35.87;23.83;;;;;;;;;;5029732;28;20448;-72
2022/11/30 10:38:16;;;;;;;37.60;23.77;;;;;;;;;;5033114;28;20448;-72
2022/11/30 10:41:09;;;;;;;36.10;24.40;;;;;;;;;;5030350;28;23606;-72
2022/11/30 10:44:03;;;;;;;33.93;23.20;;;;;;;;;;5035675;28;20479;-72
2022/11/30 10:46:55;;;;;;;37.57;24.23;;;;;;;;;;5037119;28;20456;-72
2022/11/30 10:49:49;;;;;;;34.47;23.37;;;;;;;;;;5035390;28;20452;-72
2022/11/30 10:52:41;;;;;;;33.70;25.07;;;;;;;;;;5031509;28;20495;-72
2022/11/30 10:55:31;;;;;;;32.73;22.80;;;;;;;;;;5035358;28;20452;-72
2022/11/30 10:58:22;;;;;;;35.53;23.33;;;;;;;;;;5037521;28;21024;-72
2022/11/30 11:01:12;;;;;;;34.40;23.30;;;;;;;;;;5033520;28;20489;-72
2022/11/30 11:04:10;;;;;;;32.80;22.70;;;;;;;;;;5034906;28;20538;-72
2022/11/30 11:07:00;;;;;;;32.20;22.50;;;;;;;;;;5035616;28;20446;-72
2022/11/30 11:09:50;;;;;;;38.00;23.60;;;;;;;;;;5033954;28;20456;-72
2022/11/30 11:12:39;;;;;;;33.07;23.03;;;;;;;;;;5031543;28;20483;-72
2022/11/30 11:15:29;;;;;;;36.80;24.27;;;;;;;;;;5032523;28;20535;-72
2022/11/30 11:18:22;;;;;;;38.43;25.60;;;;;;;;;;5032203;28;20458;-72
2022/11/30 11:21:18;;;;;;;38.87;26.30;;;;;;;;;;5037470;28;20476;-72
2022/11/30 11:24:10;;;;;;;35.57;23.77;;;;;;;;;;5035044;28;20490;-72
2022/11/30 11:26:59;;;;;;;34.33;23.37;;;;;;;;;;5036239;28;20450;-72
2022/11/30 11:29:56;;;;;;;33.27;23.20;;;;;;;;;;5034994;28;20797;-72
2022/11/30 11:32:57;;;;;;;33.03;23.40;;;;;;;;;;5036484;28;20496;-72
2022/11/30 11:35:48;;;;;;;34.90;23.97;;;;;;;;;;5037176;28;20963;-72
2022/11/30 11:38:41;;;;;;;36.37;23.40;;;;;;;;;;5035139;28;20455;-72
2022/11/30 11:41:32;;;;;;;31.80;22.87;;;;;;;;;;5037415;28;20507;-72
2022/11/30 11:44:24;;;;;;;33.47;23.13;;;;;;;;;;5047056;28;20492;-72
2022/11/30 11:47:23;;;;;;;35.53;23.70;;;;;;;;;;5049503;28;20450;-72
2022/11/30 11:50:29;;;;;;;33.77;22.47;;;;;;;;;;5039714;28;20456;-72
2022/11/30 11:53:41;;;;;;;29.27;21.43;;;;;;;;;;5025808;28;20491;-72
2022/11/30 11:56:37;;;;;;;37.60;23.87;;;;;;;;;;5038605;28;20501;-72
2022/11/30 11:59:31;;;;;;;32.57;21.77;;;;;;;;;;5031763;28;20972;-72
2022/11/30 12:02:26;;;;;;;31.73;22.20;;;;;;;;;;5031576;28;20850;-72
2022/11/30 12:05:17;;;;;;;30.60;21.30;;;;;;;;;;5035089;28;20625;-72
2022/11/30 12:08:09;;;;;;;33.57;22.27;;;;;;;;;;5034238;28;20458;-72
2022/11/30 12:11:01;;;;;;;33.23;22.83;;;;;;;;;;5033913;28;20487;-72
2022/11/30 12:13:50;;;;;;;30.50;22.17;;;;;;;;;;5038156;28;20471;-72
2022/11/30 12:16:44;;;;;;;31.67;22.53;;;;;;;;;;5036362;28;20452;-72
2022/11/30 12:19:37;;;;;;;32.50;22.83;;;;;;;;;;5035767;28;20456;-72
2022/11/30 12:22:45;;;;;;;29.93;21.27;;;;;;;;;;5035704;28;20478;-72
2022/11/30 12:25:36;;;;;;;28.83;21.60;;;;;;;;;;5034982;28;20897;-72
2022/11/30 12:28:29;;;;;;;30.87;21.77;;;;;;;;;;5031160;28;21555;-73
2022/11/30 12:31:18;;;;;;;29.97;20.93;;;;;;;;;;5037088;28;20502;-72
2022/11/30 12:34:10;;;;;;;30.80;22.50;;;;;;;;;;5030488;28;20471;-72
2022/11/30 12:37:05;;;;;;;35.93;23.33;;;;;;;;;;5033239;28;20455;-72
2022/11/30 12:39:58;;;;;;;32.97;22.60;;;;;;;;;;5025270;28;21014;-71
2022/11/30 12:42:48;;;;;;;32.63;22.63;;;;;;;;;;5029702;28;20490;-72
2022/11/30 12:45:41;;;;;;;29.50;21.43;;;;;;;;;;5031430;28;20860;-71
2022/11/30 12:48:37;;;;;;;28.90;21.40;;;;;;;;;;5013026;28;20610;-72
2022/11/30 12:51:30;;;;;;;30.07;22.37;;;;;;;;;;5024131;28;20533;-71
2022/11/30 12:54:22;;;;;;;33.37;22.87;;;;;;;;;;5025726;28;21496;-71
2022/11/30 12:57:13;;;;;;;33.10;22.63;;;;;;;;;;5025799;28;20459;-71
2022/11/30 13:00:04;;;;;;;32.37;23.27;;;;;;;;;;5030372;28;20472;-72
2022/11/30 13:03:10;;;;;;;32.37;23.00;;;;;;;;;;5022254;28;20476;-72
2022/11/30 13:06:00;;;;;;;28.90;21.33;;;;;;;;;;5022919;28;21025;-72
2022/11/30 13:08:54;;;;;;;32.00;21.80;;;;;;;;;;5021731;28;20483;-72
2022/11/30 13:11:45;;;;;;;28.13;21.40;;;;;;;;;;5027568;28;21018;-72
2022/11/30 13:14:35;;;;;;;31.53;21.20;;;;;;;;;;5018518;28;21072;-73
2022/11/30 13:17:25;;;;;;;31.03;21.53;;;;;;;;;;5029809;28;20467;-72
2022/11/30 13:20:21;;;;;;;35.23;22.53;;;;;;;;;;5031589;28;20459;-73
2022/11/30 13:23:12;;;;;;;30.87;22.83;;;;;;;;;;5030312;28;20586;-72
2022/11/30 13:26:03;;;;;;;32.60;21.73;;;;;;;;;;5036542;28;20476;-73
2022/11/30 13:29:23;;;;;;;33.13;23.27;;;;;;;;;;5028760;28;20962;-73
2022/11/30 13:32:13;;;;;;;36.30;24.20;;;;;;;;;;5027996;28;20483;-73
2022/11/30 13:35:49;;;;;;;34.33;22.83;;;;;;;;;;5029439;28;20823;-73
2022/11/30 13:38:39;;;;;;;35.67;23.80;;;;;;;;;;5007371;28;20451;-73
2022/11/30 13:41:27;;;;;;;32.53;22.63;;;;;;;;;;5031734;28;20552;-73
2022/11/30 13:44:24;;;;;;;36.40;23.53;;;;;;;;;;5027607;28;20501;-73
2022/11/30 13:47:17;;;;;;;38.63;23.03;;;;;;;;;;5041964;28;20595;-73
2022/11/30 13:50:08;;;;;;;35.23;23.43;;;;;;;;;;5055216;28;20456;-73
2022/11/30 13:53:33;;;;;;;36.67;23.20;;;;;;;;;;5045393;28;21829;-73
2022/11/30 13:56:36;;;;;;;37.07;23.87;;;;;;;;;;5014624;28;20448;-72
2022/11/30 13:59:45;;;;;;;37.40;25.47;;;;;;;;;;5023783;28;20466;-73
2022/11/30 14:02:58;;;;;;;38.13;24.80;;;;;;;;;;5029634;28;20490;-73
2022/11/30 14:05:46;;;;;;;43.03;25.47;;;;;;;;;;5019318;28;20480;-72
2022/11/30 14:08:38;;;;;;;44.10;25.53;;;;;;;;;;5034055;28;20555;-73
2022/11/30 14:11:39;;;;;;;39.27;26.27;;;;;;;;;;5025222;28;20479;-73
2022/11/30 14:14:44;;;;;;;44.53;28.60;;;;;;;;;;5031172;28;20475;-72
2022/11/30 14:17:35;;;;;;;40.30;27.00;;;;;;;;;;5031817;28;20490;-72
2022/11/30 14:20:28;;;;;;;46.67;27.93;;;;;;;;;;5030166;28;20459;-73
2022/11/30 14:23:26;;;;;;;41.57;25.47;;;;;;;;;;5009160;28;20846;-73
2022/11/30 14:26:16;;;;;;;41.73;26.60;;;;;;;;;;5036068;28;20479;-72
2022/11/30 14:29:16;;;;;;;46.70;27.53;;;;;;;;;;5024602;28;20967;-73
2022/11/30 14:32:08;;;;;;;50.47;27.83;;;;;;;;;;5023209;28;20470;-73
2022/11/30 14:35:02;;;;;;;46.53;28.13;;;;;;;;;;5005091;28;20513;-73
2022/11/30 14:37:53;;;;;;;44.90;27.10;;;;;;;;;;5010774;28;20479;-73
2022/11/30 14:40:49;;;;;;;46.27;28.70;;;;;;;;;;5011344;28;21077;-73
2022/11/30 14:43:38;;;;;;;45.67;29.67;;;;;;;;;;5009452;28;20565;-73
2022/11/30 14:46:28;;;;;;;47.30;27.90;;;;;;;;;;5016278;28;20482;-72
2022/11/30 14:49:20;;;;;;;51.37;30.83;;;;;;;;;;5016569;28;20484;-72
2022/11/30 14:52:13;;;;;;;47.43;28.13;;;;;;;;;;5017475;28;20569;-72
2022/11/30 14:55:07;;;;;;;49.47;29.43;;;;;;;;;;5018014;28;20509;-74
2022/11/30 14:58:00;;;;;;;48.10;29.00;;;;;;;;;;5018260;28;20915;-76
2022/11/30 15:00:56;;;;;;;49.40;29.30;;;;;;;;;;5002281;28;21051;-72
2022/11/30 15:03:49;;;;;;;50.70;30.90;;;;;;;;;;5016088;28;20482;-74
2022/11/30 15:06:39;;;;;;;51.43;30.50;;;;;;;;;;5030105;28;20855;-76
2022/11/30 15:09:30;;;;;;;51.63;28.20;;;;;;;;;;5011629;28;20454;-73
2022/11/30 15:12:20;;;;;;;50.43;29.70;;;;;;;;;;5009952;28;20494;-72
2022/11/30 15:15:17;;;;;;;54.80;31.90;;;;;;;;;;5031271;28;21676;-72
2022/11/30 15:18:10;;;;;;;54.57;29.63;;;;;;;;;;5026905;28;20632;-72
2022/11/30 15:21:03;;;;;;;56.13;32.77;;;;;;;;;;5033775;28;20478;-73
2022/11/30 15:23:52;;;;;;;55.83;30.90;;;;;;;;;;5029481;28;20474;-72
2022/11/30 15:26:45;;;;;;;55.80;29.87;;;;;;;;;;5022444;28;21710;-73
2022/11/30 15:29:35;;;;;;;55.73;30.47;;;;;;;;;;5029899;28;20474;-72
2022/11/30 15:32:24;;;;;;;50.50;29.53;;;;;;;;;;5025659;28;20487;-72
2022/11/30 15:35:21;;;;;;;57.83;31.10;;;;;;;;;;5017296;28;20463;-72
2022/11/30 15:38:11;;;;;;;60.63;31.17;;;;;;;;;;5016203;28;20455;-72
2022/11/30 15:41:03;;;;;;;47.87;28.60;;;;;;;;;;5022877;28;21046;-72
2022/11/30 15:43:53;;;;;;;52.43;30.13;;;;;;;;;;5032631;28;20513;-72
2022/11/30 15:46:56;;;;;;;54.87;30.50;;;;;;;;;;5038458;28;21151;-74
2022/11/30 15:49:51;;;;;;;57.07;30.10;;;;;;;;;;5035406;28;20454;-75
2022/11/30 15:52:44;;;;;;;51.50;29.83;;;;;;;;;;5017724;28;20491;-76
2022/11/30 15:55:47;;;;;;;52.03;30.30;;;;;;;;;;5021780;28;20505;-73
2022/11/30 15:58:44;;;;;;;52.87;30.80;;;;;;;;;;5013544;28;20509;-73
2022/11/30 16:02:00;;;;;;;52.17;29.10;;;;;;;;;;5016502;28;21008;-73
2022/11/30 16:05:22;;;;;;;54.20;30.97;;;;;;;;;;5017241;28;20473;-73
2022/11/30 16:08:15;;;;;;;61.80;31.60;;;;;;;;;;5023751;28;20486;-73
2022/11/30 16:11:09;;;;;;;52.17;30.37;;;;;;;;;;5023821;28;20532;-73
2022/11/30 16:13:57;;;;;;;59.43;32.27;;;;;;;;;;5022917;28;20478;-73
2022/11/30 16:16:46;;;;;;;63.63;33.67;;;;;;;;;;5028451;28;20498;-73
2022/11/30 16:19:35;;;;;;;59.33;32.03;;;;;;;;;;5015045;28;21013;-73
2022/11/30 16:22:24;;;;;;;54.80;30.33;;;;;;;;;;5025366;28;20491;-72
2022/11/30 16:25:14;;;;;;;53.27;30.53;;;;;;;;;;5035329;28;20454;-72
2022/11/30 16:28:04;;;;;;;54.80;28.73;;;;;;;;;;5023195;28;20455;-73
2022/11/30 16:30:54;;;;;;;53.67;30.03;;;;;;;;;;5029788;28;20485;-73
2022/11/30 16:33:42;;;;;;;50.43;29.93;;;;;;;;;;5018208;28;21108;-76
2022/11/30 16:36:32;;;;;;;54.20;29.47;;;;;;;;;;5018308;28;20863;-76
2022/11/30 16:39:21;;;;;;;56.63;31.23;;;;;;;;;;5014996;28;21211;-76
2022/11/30 16:42:11;;;;;;;54.63;30.70;;;;;;;;;;5024884;28;20483;-76
2022/11/30 16:45:02;;;;;;;54.47;29.50;;;;;;;;;;5029561;28;20458;-75
2022/11/30 16:47:51;;;;;;;52.27;29.87;;;;;;;;;;5027948;28;20448;-75